Time;durP1;ratioP1;P1;durP2;ratioP2;P2;SDS_P1;SDS_P2;PMS_P1;PMS_P2;Temp;Humidity;BMP_temperature;BMP_pressure;BME280_temperature;BME280_humidity;BME280_pressure;Samples;Min_cycle;Max_cycle;Signal;HPM_P1;HPM_P2
2022/08/05 00:00:16;;;;;;;8.75;7.15;;;26.60;77.50;;;;;;5078718;28;20045;-65
2022/08/05 00:02:47;;;;;;;7.78;6.97;;;26.60;77.00;;;;;;5087831;28;20714;-65
2022/08/05 00:05:21;;;;;;;7.40;6.80;;;26.60;77.60;;;;;;5061156;28;21065;-67
2022/08/05 00:08:08;;;;;;;7.10;6.50;;;26.50;77.60;;;;;;5073492;28;20040;-66
2022/08/05 00:10:57;;;;;;;7.45;6.85;;;26.50;78.20;;;;;;5080803;28;20043;-65
2022/08/05 00:13:31;;;;;;;7.50;6.73;;;26.50;78.60;;;;;;5085288;28;20498;-66
2022/08/05 00:16:10;;;;;;;7.57;6.88;;;26.40;79.00;;;;;;5075933;28;20360;-65
2022/08/05 00:18:41;;;;;;;7.05;6.45;;;26.40;80.20;;;;;;5078460;28;20044;-65
2022/08/05 00:21:11;;;;;;;8.70;7.20;;;26.40;79.80;;;;;;5073195;28;20428;-65
2022/08/05 00:23:42;;;;;;;7.50;6.78;;;26.30;80.20;;;;;;5077194;28;20059;-69
2022/08/05 00:26:20;;;;;;;7.70;7.00;;;26.30;80.60;;;;;;5074327;28;20391;-65
2022/08/05 00:28:49;;;;;;;8.00;7.20;;;26.20;81.10;;;;;;5068489;28;20192;-66
2022/08/05 00:31:17;;;;;;;7.80;7.20;;;26.20;81.60;;;;;;5084749;28;20064;-66
2022/08/05 00:34:04;;;;;;;8.15;7.35;;;26.20;82.00;;;;;;5069187;28;20625;-65
2022/08/05 00:36:51;;;;;;;7.85;6.70;;;26.20;82.40;;;;;;5067227;28;20044;-65
2022/08/05 00:39:41;;;;;;;8.52;7.20;;;26.20;82.90;;;;;;5073919;28;20047;-65
2022/08/05 00:42:38;;;;;;;7.90;7.05;;;26.20;83.40;;;;;;5056385;28;20040;-65
2022/08/05 00:45:08;;;;;;;7.80;7.18;;;26.10;83.90;;;;;;5066345;28;20044;-65
2022/08/05 00:47:39;;;;;;;7.95;7.30;;;26.10;84.30;;;;;;5073708;28;20075;-65
2022/08/05 00:50:23;;;;;;;7.78;7.10;;;26.10;84.70;;;;;;5063674;28;20041;-65
2022/08/05 00:52:52;;;;;;;7.28;6.68;;;26.10;85.30;;;;;;5072810;28;20521;-65
2022/08/05 00:55:22;;;;;;;7.70;7.00;;;26.00;85.80;;;;;;5081674;28;20036;-66
2022/08/05 00:58:11;;;;;;;8.43;7.50;;;26.00;86.20;;;;;;5081782;28;20059;-65
2022/08/05 01:00:39;;;;;;;7.35;6.75;;;26.00;86.80;;;;;;5064652;28;20503;-66
2022/08/05 01:03:09;;;;;;;7.88;7.00;;;26.00;87.10;;;;;;5067046;28;20044;-66
2022/08/05 01:05:50;;;;;;;8.00;7.20;;;26.00;87.70;;;;;;5054347;28;20045;-65
2022/08/05 01:08:21;;;;;;;7.88;7.10;;;25.90;88.20;;;;;;5050084;28;20044;-66
2022/08/05 01:11:19;;;;;;;7.88;7.07;;;25.90;88.60;;;;;;5062926;28;20039;-66
2022/08/05 01:13:58;;;;;;;8.75;7.22;;;25.90;89.00;;;;;;5070928;28;20043;-66
2022/08/05 01:16:47;;;;;;;8.15;7.43;;;25.90;89.40;;;;;;5069652;28;20054;-66
2022/08/05 01:19:33;;;;;;;7.65;6.95;;;25.80;89.90;;;;;;5069712;28;20062;-66
2022/08/05 01:22:20;;;;;;;8.10;7.30;;;25.80;90.20;;;;;;5074772;28;20067;-66
2022/08/05 01:25:08;;;;;;;8.07;7.32;;;25.80;90.50;;;;;;5082729;28;20040;-65
2022/08/05 01:28:01;;;;;;;8.13;7.32;;;25.80;90.70;;;;;;5071665;28;20059;-66
2022/08/05 01:30:33;;;;;;;8.40;7.43;;;25.80;91.00;;;;;;5075363;28;20047;-65
2022/08/05 01:33:08;;;;;;;7.95;7.18;;;25.70;91.30;;;;;;5067822;28;20045;-66
2022/08/05 01:35:39;;;;;;;8.20;7.50;;;25.70;91.60;;;;;;5075199;28;20048;-66
2022/08/05 01:38:21;;;;;;;8.15;7.35;;;25.70;91.90;;;;;;5076876;28;20127;-66
2022/08/05 01:40:59;;;;;;;10.38;7.25;;;25.70;92.20;;;;;;5083293;28;20059;-65
2022/08/05 01:43:29;;;;;;;7.55;6.85;;;25.60;92.50;;;;;;5084520;28;20055;-66
2022/08/05 01:45:58;;;;;;;8.30;7.50;;;25.60;93.20;;;;;;5084959;28;20044;-66
2022/08/05 01:48:45;;;;;;;8.13;7.43;;;25.60;93.10;;;;;;5086890;28;20044;-66
2022/08/05 01:51:17;;;;;;;8.07;7.47;;;25.50;93.40;;;;;;5076591;28;20045;-65
2022/08/05 01:53:48;;;;;;;8.18;7.43;;;25.50;93.70;;;;;;5080111;28;20048;-65
2022/08/05 01:56:35;;;;;;;8.18;7.47;;;25.50;94.20;;;;;;5080414;28;20055;-65
2022/08/05 01:59:26;;;;;;;8.45;7.47;;;25.40;94.90;;;;;;5065429;28;20044;-66
2022/08/05 02:01:59;;;;;;;8.10;7.40;;;25.40;94.90;;;;;;5083942;28;20458;-65
2022/08/05 02:04:32;;;;;;;8.82;7.47;;;25.40;95.20;;;;;;5059873;28;20040;-64
2022/08/05 02:06:59;;;;;;;8.48;7.68;;;25.40;95.90;;;;;;5065360;28;20151;-65
2022/08/05 02:09:29;;;;;;;8.80;8.00;;;25.40;95.90;;;;;;5064982;28;20392;-65
2022/08/05 02:12:01;;;;;;;7.93;7.25;;;25.30;96.20;;;;;;5070763;28;20427;-66
2022/08/05 02:14:33;;;;;;;8.35;7.63;;;25.30;96.60;;;;;;5070093;28;20068;-65
2022/08/05 02:17:11;;;;;;;8.43;7.72;;;25.30;96.90;;;;;;5072351;28;20044;-65
2022/08/05 02:20:03;;;;;;;8.50;7.63;;;25.30;97.30;;;;;;5070015;28;20033;-65
2022/08/05 02:22:37;;;;;;;8.73;7.88;;;25.30;97.70;;;;;;5078224;28;20047;-65
2022/08/05 02:25:17;;;;;;;9.05;8.15;;;25.20;98.10;;;;;;5080998;28;20051;-65
2022/08/05 02:27:49;;;;;;;8.48;7.78;;;25.20;98.30;;;;;;5071669;28;20040;-65
2022/08/05 02:30:31;;;;;;;8.43;7.55;;;25.20;98.70;;;;;;5074769;28;20483;-66
2022/08/05 02:33:02;;;;;;;8.10;7.30;;;25.20;99.10;;;;;;5074520;28;20525;-67
2022/08/05 02:35:32;;;;;;;8.55;7.70;;;25.20;99.60;;;;;;5069218;28;20502;-64
2022/08/05 02:38:18;;;;;;;8.95;7.57;;;25.10;99.90;;;;;;5078974;28;20049;-64
2022/08/05 02:40:46;;;;;;;8.63;7.82;;;25.10;99.90;;;;;;5084435;28;20506;-69
2022/08/05 02:43:15;;;;;;;8.63;7.70;;;25.10;99.90;;;;;;5079943;28;20403;-65
2022/08/05 02:45:43;;;;;;;9.20;8.30;;;25.10;99.90;;;;;;5065800;28;20080;-64
2022/08/05 02:48:20;;;;;;;8.57;7.85;;;25.10;99.90;;;;;;5077521;28;20386;-65
2022/08/05 02:51:00;;;;;;;8.32;7.63;;;25.10;99.90;;;;;;5070086;28;20491;-64
2022/08/05 02:53:30;;;;;;;8.88;8.15;;;25.10;99.90;;;;;;5076196;28;20509;-65
2022/08/05 02:56:10;;;;;;;8.98;8.07;;;25.10;99.90;;;;;;5087920;28;20055;-65
2022/08/05 02:58:45;;;;;;;8.73;8.02;;;25.10;99.90;;;;;;5085688;28;20071;-65
2022/08/05 03:01:28;;;;;;;8.90;8.00;;;25.10;99.90;;;;;;5087022;28;20054;-65
2022/08/05 03:04:01;;;;;;;8.77;7.97;;;25.10;99.90;;;;;;5057111;28;20050;-65
2022/08/05 03:06:41;;;;;;;8.45;7.65;;;25.10;99.90;;;;;;5070817;28;20106;-65
2022/08/05 03:09:25;;;;;;;8.60;7.90;;;25.00;99.90;;;;;;5070306;28;20507;-65
2022/08/05 03:12:05;;;;;;;8.85;7.80;;;25.00;99.90;;;;;;5060931;28;20509;-65
2022/08/05 03:14:34;;;;;;;9.30;8.38;;;25.00;99.90;;;;;;5076370;28;20122;-65
2022/08/05 03:17:11;;;;;;;8.63;7.90;;;25.00;99.90;;;;;;5075257;28;20041;-65
2022/08/05 03:19:39;;;;;;;10.65;7.80;;;25.00;99.90;;;;;;5057213;28;20532;-66
2022/08/05 03:22:11;;;;;;;8.70;7.90;;;25.00;99.90;;;;;;5052590;28;20060;-67
2022/08/05 03:24:46;;;;;;;9.98;8.75;;;24.90;99.90;;;;;;5070251;28;20071;-62
2022/08/05 03:27:18;;;;;;;9.68;8.82;;;24.60;99.90;;;;;;5077377;28;20032;-64
2022/08/05 03:29:46;;;;;;;10.18;9.02;;;24.40;99.90;;;;;;5087084;28;20086;-63
2022/08/05 03:32:34;;;;;;;9.38;8.27;;;24.40;99.90;;;;;;5075206;28;20473;-63
2022/08/05 03:35:02;;;;;;;12.15;8.35;;;24.40;99.90;;;;;;5068873;28;20120;-63
2022/08/05 03:37:31;;;;;;;9.63;8.63;;;24.40;99.90;;;;;;5073159;28;20514;-65
2022/08/05 03:40:13;;;;;;;9.73;8.73;;;24.30;99.90;;;;;;5076920;28;20040;-63
2022/08/05 03:42:50;;;;;;;9.95;8.95;;;24.40;99.90;;;;;;5077429;28;20052;-63
2022/08/05 03:45:19;;;;;;;9.82;8.82;;;24.40;99.90;;;;;;5084218;28;20044;-63
2022/08/05 03:47:50;;;;;;;9.27;8.57;;;24.40;99.90;;;;;;5084909;28;20044;-63
2022/08/05 03:50:23;;;;;;;9.68;8.68;;;24.40;99.90;;;;;;5072658;28;20673;-63
2022/08/05 03:53:11;;;;;;;9.48;8.57;;;24.50;99.90;;;;;;5077521;28;20048;-64
2022/08/05 03:56:05;;;;;;;9.30;8.32;;;24.40;99.90;;;;;;5067503;28;20040;-67
2022/08/05 03:58:57;;;;;;;11.05;8.32;;;24.50;99.90;;;;;;5077609;28;20482;-64
2022/08/05 04:01:27;;;;;;;8.88;8.18;;;24.50;99.90;;;;;;5084363;28;20058;-64
2022/08/05 04:04:00;;;;;;;9.15;8.30;;;24.50;99.90;;;;;;5070538;28;20445;-64
2022/08/05 04:06:37;;;;;;;9.15;8.30;;;24.50;99.90;;;;;;5075202;28;20491;-64
2022/08/05 04:09:15;;;;;;;9.65;8.85;;;24.50;99.90;;;;;;5081330;28;20494;-64
2022/08/05 04:11:52;;;;;;;8.93;8.10;;;24.60;99.90;;;;;;5086592;28;20329;-65
2022/08/05 04:14:25;;;;;;;9.70;8.90;;;24.60;99.90;;;;;;5056678;28;20461;-64
2022/08/05 04:16:59;;;;;;;9.30;8.50;;;24.70;99.90;;;;;;5082122;28;20052;-64
2022/08/05 04:19:28;;;;;;;9.68;8.30;;;24.70;99.90;;;;;;5067509;28;20450;-64
2022/08/05 04:21:55;;;;;;;9.82;8.77;;;24.60;99.90;;;;;;5069709;28;20296;-65
2022/08/05 04:24:41;;;;;;;9.77;8.85;;;24.70;99.90;;;;;;5066837;28;20066;-64
2022/08/05 04:27:19;;;;;;;10.23;9.32;;;24.70;99.90;;;;;;5071492;28;20492;-64
2022/08/05 04:30:07;;;;;;;9.40;8.50;;;24.70;99.90;;;;;;5078912;28;20115;-65
2022/08/05 04:32:35;;;;;;;9.82;8.20;;;24.70;99.90;;;;;;5076833;28;20097;-64
2022/08/05 04:35:06;;;;;;;11.68;8.65;;;24.70;99.90;;;;;;5069122;28;20063;-64
2022/08/05 04:37:45;;;;;;;9.02;8.13;;;24.70;99.90;;;;;;5057458;28;20122;-64
2022/08/05 04:40:37;;;;;;;11.50;8.80;;;24.70;99.90;;;;;;5067393;28;20050;-64
2022/08/05 04:43:10;;;;;;;9.35;8.30;;;24.60;99.90;;;;;;5073139;28;20066;-63
2022/08/05 04:45:43;;;;;;;10.50;9.50;;;24.60;99.90;;;;;;5083916;28;20083;-64
2022/08/05 04:48:20;;;;;;;11.00;9.35;;;24.50;99.90;;;;;;5075136;28;20571;-63
2022/08/05 04:50:54;;;;;;;10.77;9.88;;;24.50;99.90;;;;;;5071518;28;20041;-64
2022/08/05 04:53:38;;;;;;;10.90;10.00;;;24.50;99.90;;;;;;5069029;28;20039;-64
2022/08/05 04:56:06;;;;;;;10.82;9.82;;;24.50;99.90;;;;;;5076840;28;20571;-64
2022/08/05 04:58:54;;;;;;;13.43;9.82;;;24.50;99.90;;;;;;5081452;28;20524;-64
2022/08/05 05:01:22;;;;;;;10.05;9.25;;;24.50;99.90;;;;;;5073290;28;20080;-64
2022/08/05 05:04:09;;;;;;;8.30;7.40;;;24.40;99.90;;;;;;5052902;28;20044;-64
2022/08/05 05:06:38;;;;;;;8.30;7.53;;;24.50;99.90;;;;;;5070128;28;20047;-63
2022/08/05 05:09:15;;;;;;;9.48;7.85;;;24.40;99.90;;;;;;5074073;28;20032;-63
2022/08/05 05:11:44;;;;;;;12.18;8.35;;;24.50;99.90;;;;;;5079788;28;20059;-64
2022/08/05 05:14:23;;;;;;;11.00;8.30;;;24.50;99.90;;;;;;5085181;28;20142;-65
2022/08/05 05:16:59;;;;;;;8.35;7.38;;;24.50;99.90;;;;;;5076448;28;20052;-64
2022/08/05 05:19:26;;;;;;;10.63;7.80;;;24.40;99.90;;;;;;5061501;28;20501;-63
2022/08/05 05:22:11;;;;;;;8.30;7.50;;;24.40;99.90;;;;;;5069724;28;20037;-64
2022/08/05 05:24:53;;;;;;;12.73;7.88;;;24.40;99.90;;;;;;5058144;28;20394;-64
2022/08/05 05:27:30;;;;;;;9.68;8.13;;;24.40;99.90;;;;;;5075490;28;20187;-63
2022/08/05 05:30:15;;;;;;;9.80;8.80;;;24.40;99.90;;;;;;5086320;28;20420;-64
2022/08/05 05:33:01;;;;;;;9.23;8.38;;;24.40;99.90;;;;;;5059530;28;20079;-63
2022/08/05 05:35:43;;;;;;;9.25;8.15;;;24.50;99.90;;;;;;5064792;28;20435;-63
2022/08/05 05:38:11;;;;;;;10.88;8.23;;;24.40;99.90;;;;;;5074926;28;20554;-66
2022/08/05 05:40:41;;;;;;;10.85;8.38;;;24.50;99.90;;;;;;5069316;28;20075;-63
2022/08/05 05:43:18;;;;;;;13.57;9.35;;;24.60;99.90;;;;;;5075718;28;20044;-64
2022/08/05 05:46:06;;;;;;;9.90;8.70;;;24.50;99.90;;;;;;5082783;28;20482;-65
2022/08/05 05:48:42;;;;;;;9.40;8.40;;;24.60;99.90;;;;;;5073038;28;20627;-65
2022/08/05 05:51:10;;;;;;;10.77;8.70;;;24.70;99.90;;;;;;5067151;28;20115;-64
2022/08/05 05:53:42;;;;;;;10.48;8.50;;;24.80;99.90;;;;;;5080857;28;20044;-63
2022/08/05 05:56:30;;;;;;;9.98;9.00;;;25.00;99.90;;;;;;5064483;28;20582;-65
2022/08/05 05:59:05;;;;;;;11.25;9.45;;;25.30;99.90;;;;;;5077623;28;20041;-64
2022/08/05 06:01:35;;;;;;;9.73;8.73;;;25.40;99.90;;;;;;5063962;28;20060;-64
2022/08/05 06:04:10;;;;;;;9.52;8.63;;;25.50;99.90;;;;;;5077575;28;20570;-63
2022/08/05 06:06:41;;;;;;;16.92;8.82;;;25.70;99.90;;;;;;5055187;28;20041;-63
2022/08/05 06:09:13;;;;;;;13.75;9.20;;;25.90;99.90;;;;;;5083731;28;20036;-64
2022/08/05 06:11:54;;;;;;;13.38;9.27;;;25.90;99.90;;;;;;5085187;28;20056;-63
2022/08/05 06:14:32;;;;;;;10.60;9.02;;;26.00;99.90;;;;;;5071646;28;20068;-64
2022/08/05 06:17:01;;;;;;;10.05;9.15;;;26.00;99.90;;;;;;5049118;28;20056;-64
2022/08/05 06:19:48;;;;;;;17.17;8.50;;;26.00;99.90;;;;;;5078048;28;20044;-62
2022/08/05 06:22:27;;;;;;;11.68;9.15;;;25.90;99.90;;;;;;5071174;28;20040;-63
2022/08/05 06:24:55;;;;;;;10.80;9.73;;;25.70;99.90;;;;;;5070910;28;20056;-62
2022/08/05 06:27:22;;;;;;;14.50;9.60;;;25.40;99.90;;;;;;5076144;28;20036;-63
2022/08/05 06:30:14;;;;;;;11.38;8.45;;;25.40;99.90;;;;;;5073552;28;20050;-63
2022/08/05 06:32:47;;;;;;;9.70;8.68;;;25.30;99.90;;;;;;5070664;28;20447;-63
2022/08/05 06:35:17;;;;;;;13.13;9.10;;;25.30;99.90;;;;;;5069378;28;20133;-64
2022/08/05 06:38:05;;;;;;;11.02;9.00;;;25.10;99.90;;;;;;5054246;28;20095;-63
2022/08/05 06:40:40;;;;;;;10.35;8.02;;;25.00;99.90;;;;;;5061803;28;20040;-63
2022/08/05 06:43:11;;;;;;;9.00;8.20;;;24.90;99.90;;;;;;5074021;28;20044;-63
2022/08/05 06:45:58;;;;;;;12.88;8.63;;;24.80;99.90;;;;;;5074959;28;20047;-63
2022/08/05 06:48:34;;;;;;;13.93;8.65;;;24.80;99.90;;;;;;5083593;28;20040;-63
2022/08/05 06:51:22;;;;;;;12.77;8.80;;;24.60;99.90;;;;;;5083923;28;20414;-63
2022/08/05 06:54:01;;;;;;;9.93;8.40;;;24.60;99.90;;;;;;5082758;28;20486;-63
2022/08/05 06:56:30;;;;;;;12.23;8.38;;;24.60;99.90;;;;;;5076003;28;20047;-64
2022/08/05 06:59:04;;;;;;;10.18;8.40;;;24.70;99.90;;;;;;5085409;28;20082;-63
2022/08/05 07:01:37;;;;;;;10.45;7.85;;;24.70;99.90;;;;;;5083404;28;20051;-63
2022/08/05 07:04:08;;;;;;;13.75;8.80;;;24.70;99.90;;;;;;5073311;28;20041;-63
2022/08/05 07:06:35;;;;;;;16.65;9.10;;;24.80;99.90;;;;;;5073128;28;20072;-63
2022/08/05 07:09:03;;;;;;;8.82;7.93;;;24.80;99.90;;;;;;5081071;28;20077;-64
2022/08/05 07:11:34;;;;;;;10.05;7.57;;;25.10;99.90;;;;;;5079628;28;20040;-64
2022/08/05 07:17:00;;;;;;;9.60;7.50;;;25.30;99.90;;;;;;5072424;28;20052;-64
2022/08/05 07:19:53;;;;;;;8.50;7.10;;;25.50;99.90;;;;;;5053620;28;20069;-63
2022/08/05 07:22:40;;;;;;;10.27;7.20;;;25.60;99.90;;;;;;5074188;28;20044;-64
2022/08/05 07:25:08;;;;;;;9.65;6.65;;;25.80;99.90;;;;;;5072972;28;20040;-64
2022/08/05 07:27:56;;;;;;;10.65;6.80;;;25.90;99.90;;;;;;5074370;28;20044;-64
2022/08/05 07:30:35;;;;;;;9.35;6.20;;;26.10;99.90;;;;;;5065582;28;20068;-64
2022/08/05 07:33:07;;;;;;;7.38;6.07;;;26.30;99.90;;;;;;5056023;28;20453;-64
2022/08/05 07:35:37;;;;;;;7.72;6.60;;;26.50;99.90;;;;;;5072706;28;20040;-64
2022/08/05 07:38:25;;;;;;;6.90;6.20;;;26.60;99.90;;;;;;5074838;28;20474;-63
2022/08/05 07:41:05;;;;;;;8.63;6.50;;;26.90;99.90;;;;;;5080415;28;20048;-64
2022/08/05 07:43:54;;;;;;;7.88;7.18;;;27.10;99.90;;;;;;5071588;28;20127;-64
2022/08/05 07:46:25;;;;;;;7.78;7.07;;;27.10;99.90;;;;;;5082125;28;20520;-64
2022/08/05 07:48:54;;;;;;;8.02;6.80;;;27.20;99.90;;;;;;5075757;28;20490;-64
2022/08/05 07:51:29;;;;;;;7.40;6.65;;;27.30;99.90;;;;;;5072799;28;20063;-64
2022/08/05 07:54:05;;;;;;;8.93;6.88;;;27.30;99.90;;;;;;5063278;28;20510;-64
2022/08/05 07:56:37;;;;;;;7.70;6.85;;;27.20;99.90;;;;;;5064779;28;20498;-64
2022/08/05 07:59:24;;;;;;;7.22;6.53;;;27.30;99.90;;;;;;5051283;28;20503;-63
2022/08/05 08:02:10;;;;;;;7.65;6.28;;;27.50;99.90;;;;;;5063294;28;20055;-63
2022/08/05 08:04:45;;;;;;;8.70;6.32;;;27.70;99.90;;;;;;5057228;28;20044;-63
2022/08/05 08:07:15;;;;;;;8.77;6.57;;;27.80;99.90;;;;;;5074166;28;20107;-64
2022/08/05 08:09:44;;;;;;;7.97;6.32;;;27.80;99.90;;;;;;5078116;28;20051;-64
2022/08/05 08:12:12;;;;;;;7.13;6.43;;;27.70;99.90;;;;;;5079419;28;20036;-64
2022/08/05 08:15:00;;;;;;;14.00;6.72;;;27.80;99.90;;;;;;5080968;28;20142;-64
2022/08/05 08:17:29;;;;;;;8.63;7.10;;;27.70;99.90;;;;;;5080494;28;20142;-64
2022/08/05 08:19:57;;;;;;;9.27;6.97;;;27.70;99.90;;;;;;5085670;28;20651;-64
2022/08/05 08:22:53;;;;;;;7.47;6.68;;;27.80;99.90;;;;;;5076929;28;20036;-64
2022/08/05 08:25:22;;;;;;;7.78;6.75;;;27.80;99.90;;;;;;5066386;28;20052;-64
2022/08/05 08:28:10;;;;;;;8.00;7.20;;;27.90;99.90;;;;;;5065422;28;20039;-64
2022/08/05 08:30:57;;;;;;;8.02;6.80;;;27.80;99.90;;;;;;5085790;28;20032;-65
2022/08/05 08:33:24;;;;;;;8.30;7.40;;;27.80;99.90;;;;;;5070470;28;20041;-64
2022/08/05 08:35:54;;;;;;;8.02;7.00;;;27.90;99.90;;;;;;5074548;28;20067;-65
2022/08/05 08:38:41;;;;;;;8.60;6.70;;;27.90;99.90;;;;;;5063817;28;20054;-65
2022/08/05 08:41:21;;;;;;;7.50;6.72;;;28.00;99.90;;;;;;5071895;28;20094;-64
2022/08/05 08:43:54;;;;;;;7.13;6.40;;;28.20;99.90;;;;;;5066558;28;20048;-65
2022/08/05 08:46:43;;;;;;;6.57;5.90;;;28.20;99.90;;;;;;5072129;28;20047;-64
2022/08/05 08:49:15;;;;;;;8.77;7.93;;;28.20;99.90;;;;;;5066724;28;20130;-64
2022/08/05 08:52:16;;;;;;;9.50;7.85;;;28.20;99.90;;;;;;5075975;28;20590;-64
2022/08/05 08:54:44;;;;;;;9.00;8.10;;;28.20;99.90;;;;;;5065551;28;20447;-65
2022/08/05 08:57:12;;;;;;;9.50;8.10;;;28.40;99.90;;;;;;5054154;28;20669;-65
2022/08/05 08:59:43;;;;;;;;;;;28.50;99.90;;;;;;5069545;28;20052;-65
2022/08/05 09:02:17;;;;;;;8.30;7.60;;;28.80;99.90;;;;;;5069601;28;19928;-64
2022/08/05 09:04:46;;;;;;;10.33;7.43;;;29.30;99.90;;;;;;5067782;28;20052;-64
2022/08/05 09:07:34;;;;;;;7.38;6.68;;;29.50;99.90;;;;;;5067926;28;20743;-64
2022/08/05 09:10:22;;;;;;;7.38;6.65;;;29.50;99.90;;;;;;5060167;28;20491;-64
2022/08/05 09:12:56;;;;;;;7.95;7.05;;;29.40;99.90;;;;;;5079162;28;20521;-64
2022/08/05 09:15:31;;;;;;;8.15;6.70;;;29.10;99.90;;;;;;5074001;28;20067;-64
2022/08/05 09:18:06;;;;;;;8.75;6.65;;;29.20;99.90;;;;;;5065854;28;20040;-64
2022/08/05 09:20:36;;;;;;;7.82;6.85;;;29.10;99.90;;;;;;5066863;28;20053;-64
2022/08/05 09:23:05;;;;;;;7.72;6.88;;;29.10;99.90;;;;;;5079943;28;20105;-64
2022/08/05 09:25:40;;;;;;;7.53;6.40;;;29.20;99.90;;;;;;5079232;28;20062;-64
2022/08/05 09:28:28;;;;;;;;;;;29.20;99.90;;;;;;5064224;28;20111;-64
2022/08/05 09:31:11;;;;;;;7.60;6.45;;;29.10;99.90;;;;;;5081323;28;20356;-64
2022/08/05 09:34:01;;;;;;;7.38;6.20;;;29.30;99.90;;;;;;5066956;28;20047;-64
2022/08/05 09:36:49;;;;;;;9.82;6.88;;;29.40;99.90;;;;;;5069619;28;20559;-66
2022/08/05 09:39:23;;;;;;;7.05;6.30;;;29.50;99.90;;;;;;5078326;28;20462;-63
2022/08/05 09:42:05;;;;;;;9.63;6.57;;;29.40;99.90;;;;;;5069421;28;20078;-64
2022/08/05 09:44:38;;;;;;;7.60;6.03;;;29.40;99.90;;;;;;5061206;28;20490;-64
2022/08/05 09:47:20;;;;;;;7.60;6.10;;;29.30;99.10;;;;;;5073299;28;20068;-64
2022/08/05 09:49:49;;;;;;;7.50;6.35;;;29.40;99.60;;;;;;5070867;28;20044;-64
2022/08/05 09:52:33;;;;;;;8.53;6.47;;;29.60;99.40;;;;;;5072533;28;20051;-63
2022/08/05 09:55:03;;;;;;;7.07;6.47;;;29.80;98.90;;;;;;5083685;28;20067;-63
2022/08/05 09:57:51;;;;;;;7.25;6.55;;;30.10;98.40;;;;;;5062909;28;20379;-64
2022/08/05 10:00:24;;;;;;;6.53;6.03;;;30.40;97.60;;;;;;5066149;28;20109;-64
2022/08/05 10:02:53;;;;;;;7.07;6.18;;;30.50;97.30;;;;;;5062033;28;20044;-64
2022/08/05 10:05:26;;;;;;;6.43;5.80;;;30.50;93.70;;;;;;5059439;28;20540;-64
2022/08/05 10:08:02;;;;;;;5.47;4.97;;;30.40;93.70;;;;;;5075664;28;20052;-64
2022/08/05 10:10:50;;;;;;;6.10;4.90;;;30.70;93.70;;;;;;5081848;28;20068;-63
2022/08/05 10:13:34;;;;;;;5.57;5.05;;;30.70;91.50;;;;;;5073321;28;20087;-64
2022/08/05 10:16:34;;;;;;;9.10;5.78;;;30.60;91.40;;;;;;5049149;28;20047;-62
2022/08/05 10:19:18;;;;;;;7.05;6.30;;;30.90;90.70;;;;;;5066953;28;20046;-63
2022/08/05 10:22:07;;;;;;;6.90;6.40;;;30.70;90.80;;;;;;5079105;28;20414;-63
2022/08/05 10:24:42;;;;;;;7.05;6.38;;;30.80;90.60;;;;;;5073366;28;20123;-61
2022/08/05 10:27:13;;;;;;;7.13;6.47;;;31.00;90.20;;;;;;5079305;28;20051;-62
2022/08/05 10:29:42;;;;;;;6.10;5.57;;;31.20;89.60;;;;;;5059378;28;20036;-62
2022/08/05 10:32:31;;;;;;;6.57;5.97;;;31.00;89.10;;;;;;5075401;28;20051;-63
2022/08/05 10:35:18;;;;;;;6.40;5.80;;;31.00;88.40;;;;;;5063376;28;20499;-62
2022/08/05 10:38:00;;;;;;;6.60;6.00;;;31.20;88.30;;;;;;5065914;28;20044;-63
2022/08/05 10:40:50;;;;;;;6.22;5.68;;;31.70;87.00;;;;;;5069532;28;20306;-63
2022/08/05 10:43:34;;;;;;;6.93;6.32;;;31.90;87.40;;;;;;5064115;28;20422;-62
2022/08/05 10:46:05;;;;;;;6.95;6.28;;;32.10;85.40;;;;;;5064669;28;20125;-63
2022/08/05 10:48:40;;;;;;;6.60;6.00;;;31.80;85.20;;;;;;5078055;28;20052;-62
2022/08/05 10:51:43;;;;;;;6.38;5.78;;;32.10;84.20;;;;;;5070744;28;20550;-63
2022/08/05 10:55:02;;;;;;;7.18;6.50;;;32.10;83.10;;;;;;5072399;28;20527;-62
2022/08/05 10:57:30;;;;;;;8.57;5.75;;;32.30;82.80;;;;;;5066912;28;20481;-62
2022/08/05 11:00:28;;;;;;;6.03;5.53;;;32.30;81.10;;;;;;5060084;28;20455;-62
2022/08/05 11:03:05;;;;;;;5.90;5.40;;;32.50;80.60;;;;;;5058212;28;20438;-63
2022/08/05 11:06:05;;;;;;;6.55;5.72;;;32.60;79.00;;;;;;5075462;28;20455;-63
2022/08/05 11:09:20;;;;;;;5.90;5.40;;;32.60;79.30;;;;;;5072087;28;20048;-63
2022/08/05 11:12:44;;;;;;;7.55;5.55;;;33.20;78.50;;;;;;5068431;28;20047;-62
2022/08/05 11:15:29;;;;;;;5.85;5.20;;;33.40;76.60;;;;;;5065919;28;20436;-62
2022/08/05 11:18:28;;;;;;;6.03;5.40;;;33.50;76.10;;;;;;5062643;28;20052;-64
2022/08/05 11:21:01;;;;;;;6.47;5.82;;;33.40;75.90;;;;;;5074030;28;20123;-62
2022/08/05 11:23:53;;;;;;;6.25;5.70;;;33.80;76.20;;;;;;5067902;28;20049;-63
2022/08/05 11:26:40;;;;;;;5.93;5.40;;;33.80;74.00;;;;;;5072656;28;20067;-63
2022/08/05 11:29:33;;;;;;;6.20;5.60;;;34.20;74.00;;;;;;5081426;28;20132;-63
2022/08/05 11:32:29;;;;;;;5.97;5.45;;;34.00;72.90;;;;;;5082739;28;20045;-62
2022/08/05 11:34:56;;;;;;;6.90;6.30;;;33.90;73.00;;;;;;5069838;28;20479;-63
2022/08/05 11:37:39;;;;;;;6.88;6.20;;;34.40;73.20;;;;;;5071243;28;20043;-62
2022/08/05 11:40:57;;;;;;;6.00;5.40;;;34.80;72.60;;;;;;5075669;28;20047;-63
2022/08/05 11:43:42;;;;;;;5.55;4.97;;;34.70;72.00;;;;;;5057029;28;20185;-64
2022/08/05 11:46:42;;;;;;;5.57;5.03;;;34.80;71.10;;;;;;5081591;28;20543;-63
2022/08/05 11:49:29;;;;;;;7.47;6.88;;;35.40;70.60;;;;;;5072808;28;20041;-64
2022/08/05 11:52:01;;;;;;;6.10;5.60;;;35.50;69.90;;;;;;5074374;28;20048;-63
2022/08/05 11:54:38;;;;;;;6.05;5.45;;;35.80;68.70;;;;;;5064256;28;20052;-63
2022/08/05 11:57:07;;;;;;;6.82;6.13;;;36.30;68.00;;;;;;5075174;28;20117;-65
2022/08/05 11:59:53;;;;;;;6.70;6.10;;;36.80;67.10;;;;;;5055609;28;20072;-64
2022/08/05 12:02:30;;;;;;;6.07;5.68;;;36.40;66.20;;;;;;5076259;28;20078;-64
2022/08/05 12:05:01;;;;;;;6.20;5.70;;;35.50;67.30;;;;;;5056549;28;20052;-64
2022/08/05 12:07:37;;;;;;;6.32;5.82;;;35.80;67.30;;;;;;5084617;28;20363;-65
2022/08/05 12:10:29;;;;;;;6.00;5.55;;;36.00;66.90;;;;;;5076946;28;20516;-63
2022/08/05 12:13:09;;;;;;;6.50;5.90;;;35.80;66.90;;;;;;5087417;28;20051;-64
2022/08/05 12:15:45;;;;;;;6.10;5.60;;;35.30;67.70;;;;;;5082604;28;20044;-63
2022/08/05 12:18:28;;;;;;;5.90;5.40;;;35.50;67.50;;;;;;5059844;28;20041;-62
2022/08/05 12:21:10;;;;;;;6.88;5.68;;;35.60;67.90;;;;;;5068435;28;20498;-63
2022/08/05 12:23:38;;;;;;;6.25;5.75;;;36.10;66.80;;;;;;5071025;28;20094;-63
2022/08/05 12:26:09;;;;;;;7.60;5.80;;;36.30;66.20;;;;;;5082963;28;20147;-64
2022/08/05 12:28:37;;;;;;;6.72;5.95;;;36.80;65.90;;;;;;5083357;28;20497;-64
2022/08/05 12:31:04;;;;;;;6.07;5.50;;;37.60;65.00;;;;;;5086790;28;20143;-65
2022/08/05 12:33:32;;;;;;;6.20;5.70;;;37.90;63.70;;;;;;5069619;28;20036;-64
2022/08/05 12:36:04;;;;;;;8.10;6.25;;;37.80;63.10;;;;;;5077914;28;20040;-64
2022/08/05 12:38:38;;;;;;;7.13;5.97;;;37.70;62.70;;;;;;5086288;28;20486;-64
2022/08/05 12:41:12;;;;;;;6.70;6.10;;;37.40;63.40;;;;;;5086855;28;20048;-64
2022/08/05 12:43:53;;;;;;;6.88;5.90;;;37.20;63.50;;;;;;5082923;28;20045;-65
2022/08/05 12:46:24;;;;;;;6.53;5.60;;;37.40;63.40;;;;;;5057480;28;20071;-65
2022/08/05 12:48:59;;;;;;;6.32;5.80;;;37.10;63.90;;;;;;5067854;28;20047;-64
2022/08/05 12:51:46;;;;;;;6.45;5.88;;;36.80;64.20;;;;;;5071722;28;20051;-65
2022/08/05 12:54:34;;;;;;;6.85;6.32;;;37.40;63.40;;;;;;5067056;28;20124;-64
2022/08/05 12:57:05;;;;;;;6.10;5.60;;;37.80;62.80;;;;;;5073612;28;20514;-63
2022/08/05 12:59:50;;;;;;;6.72;6.22;;;38.60;62.30;;;;;;5076791;28;20131;-64
2022/08/05 13:02:37;;;;;;;6.10;5.50;;;39.20;60.60;;;;;;5081521;28;20075;-64
2022/08/05 13:05:07;;;;;;;6.65;5.90;;;38.20;60.30;;;;;;5063697;28;20588;-63
2022/08/05 13:07:42;;;;;;;6.18;5.68;;;38.40;60.10;;;;;;5066764;28;20469;-63
2022/08/05 13:10:31;;;;;;;6.40;5.80;;;38.20;60.30;;;;;;5054069;28;20041;-64
2022/08/05 13:13:05;;;;;;;6.82;6.32;;;38.10;60.40;;;;;;5070898;28;20567;-65
2022/08/05 13:15:34;;;;;;;6.65;6.13;;;38.40;59.90;;;;;;5072613;28;20503;-64
2022/08/05 13:18:18;;;;;;;6.50;5.90;;;38.50;59.60;;;;;;5080552;28;20439;-65
2022/08/05 13:20:47;;;;;;;6.32;5.72;;;39.20;59.00;;;;;;5069569;28;20132;-64
2022/08/05 13:23:16;;;;;;;8.75;5.88;;;39.00;58.80;;;;;;5081510;28;20127;-65
2022/08/05 13:25:50;;;;;;;6.38;4.90;;;38.90;59.20;;;;;;5082727;28;20548;-64
2022/08/05 13:28:26;;;;;;;7.25;6.55;;;38.70;59.50;;;;;;5059126;28;20407;-63
2022/08/05 13:30:54;;;;;;;8.10;7.40;;;38.80;58.80;;;;;;5075513;28;20068;-63
2022/08/05 13:33:23;;;;;;;6.22;5.63;;;39.80;58.20;;;;;;5068129;28;20041;-63
2022/08/05 13:36:12;;;;;;;6.28;5.70;;;40.30;57.50;;;;;;5068101;28;20040;-64
2022/08/05 13:38:41;;;;;;;6.10;5.60;;;39.20;57.70;;;;;;5056171;28;20136;-63
2022/08/05 13:41:10;;;;;;;5.65;5.15;;;40.00;57.60;;;;;;5075946;28;20533;-63
2022/08/05 13:43:38;;;;;;;6.10;5.25;;;40.60;57.20;;;;;;5082606;28;20429;-65